createdAt,value
2018-08-22T00:00:26.532Z,6.47
2018-08-22T00:02:55.402Z,5.43
2018-08-22T00:05:24.269Z,3.93
2018-08-22T00:07:53.172Z,4.17
2018-08-22T00:10:22.049Z,6.80
2018-08-22T00:12:51.212Z,4.33
2018-08-22T00:15:20.178Z,4.53
2018-08-22T00:17:49.190Z,5.53
2018-08-22T00:20:18.158Z,3.53
2018-08-22T00:22:47.029Z,5.60
2018-08-22T00:25:15.898Z,3.93
2018-08-22T00:27:44.886Z,4.57
2018-08-22T00:30:14.768Z,3.53
2018-08-22T00:32:43.633Z,5.77
2018-08-22T00:35:12.646Z,3.60
2018-08-22T00:37:41.475Z,5.13
2018-08-22T00:40:10.283Z,4.07
2018-08-22T00:42:39.204Z,3.67
2018-08-22T00:45:08.098Z,6.43
2018-08-22T00:47:36.950Z,5.93
2018-08-22T00:50:06.010Z,3.80
2018-08-22T00:52:34.954Z,8.50
2018-08-22T00:55:03.989Z,5.10
2018-08-22T00:57:32.930Z,3.70
2018-08-22T01:00:02.010Z,4.30
2018-08-22T01:02:30.835Z,4.77
2018-08-22T01:04:59.946Z,4.07
2018-08-22T01:07:28.767Z,4.73
2018-08-22T01:09:57.550Z,3.90
2018-08-22T01:12:26.614Z,3.57
2018-08-22T01:14:55.446Z,4.60
2018-08-22T01:17:24.293Z,9.20
2018-08-22T01:19:53.309Z,3.53
2018-08-22T01:22:22.180Z,4.43
2018-08-22T01:24:51.153Z,5.40
2018-08-22T01:27:22.595Z,6.13
2018-08-22T01:29:53.433Z,3.37
2018-08-22T01:32:22.841Z,2.87
2018-08-22T01:34:52.829Z,3.73
2018-08-22T01:37:21.674Z,3.17
2018-08-22T01:39:50.578Z,4.47
2018-08-22T01:42:19.577Z,4.73
2018-08-22T01:44:48.618Z,4.00
2018-08-22T01:47:17.430Z,3.13
2018-08-22T01:49:46.426Z,3.17
2018-08-22T01:52:15.354Z,3.87
2018-08-22T01:54:44.249Z,2.90
2018-08-22T01:57:13.271Z,2.80
2018-08-22T01:59:42.182Z,3.53
2018-08-22T02:02:11.234Z,3.20
2018-08-22T02:04:44.917Z,3.77
2018-08-22T02:07:14.089Z,3.50
2018-08-22T02:09:42.890Z,2.83
2018-08-22T02:12:11.951Z,4.13
2018-08-22T02:14:40.831Z,3.50
2018-08-22T02:17:09.820Z,3.67
2018-08-22T02:19:38.988Z,3.13
2018-08-22T02:22:07.862Z,4.53
2018-08-22T02:24:37.105Z,2.50
2018-08-22T02:27:06.063Z,5.67
2018-08-22T02:29:34.882Z,3.43
2018-08-22T02:32:03.823Z,3.93
2018-08-22T02:34:32.983Z,4.33
2018-08-22T02:37:01.943Z,3.43
2018-08-22T02:39:30.978Z,2.30
2018-08-22T02:41:59.972Z,3.47
2018-08-22T02:44:28.878Z,4.10
2018-08-22T02:46:57.772Z,4.37
2018-08-22T02:49:26.787Z,2.27
2018-08-22T02:51:55.566Z,2.77
2018-08-22T02:54:24.501Z,2.67
2018-08-22T02:56:53.531Z,2.03
2018-08-22T02:59:22.519Z,4.07
2018-08-22T03:01:51.411Z,4.83
2018-08-22T03:04:20.413Z,2.40
2018-08-22T03:06:49.366Z,2.50
2018-08-22T03:09:18.447Z,1.80
2018-08-22T03:11:47.691Z,1.90
2018-08-22T03:14:16.694Z,2.27
2018-08-22T03:16:45.552Z,2.33
2018-08-22T03:19:14.711Z,2.07
2018-08-22T03:21:43.670Z,3.87
2018-08-22T03:24:12.712Z,4.40
2018-08-22T03:26:41.959Z,3.00
2018-08-22T03:29:10.935Z,3.80
2018-08-22T03:31:40.039Z,4.63
2018-08-22T03:34:09.182Z,2.20
2018-08-22T03:36:38.507Z,2.37
2018-08-22T03:39:08.242Z,1.73
2018-08-22T03:41:37.387Z,4.10
2018-08-22T03:44:06.414Z,2.17
2018-08-22T03:46:35.495Z,3.07
2018-08-22T03:49:04.618Z,1.67
2018-08-22T03:51:33.443Z,2.47
2018-08-22T03:54:02.315Z,3.23
2018-08-22T03:56:31.379Z,1.73
2018-08-22T03:59:00.283Z,1.40
2018-08-22T04:01:29.135Z,5.47
2018-08-22T04:03:58.244Z,3.17
2018-08-22T04:06:27.136Z,2.10
2018-08-22T04:08:55.979Z,2.07
2018-08-22T04:11:25.048Z,5.47
2018-08-22T04:13:53.930Z,1.93
2018-08-22T04:16:22.830Z,3.50
2018-08-22T04:18:52.270Z,2.40
2018-08-22T04:21:21.084Z,2.93
2018-08-22T04:23:50.033Z,3.63
2018-08-22T04:26:19.127Z,3.80
2018-08-22T04:28:48.031Z,5.20
2018-08-22T04:31:16.847Z,3.87
2018-08-22T04:33:45.886Z,2.37
2018-08-22T04:36:14.999Z,5.03
2018-08-22T04:38:43.975Z,5.40
2018-08-22T04:41:13.023Z,3.90
2018-08-22T04:43:41.994Z,5.57
2018-08-22T04:46:10.972Z,5.07
2018-08-22T04:48:40.001Z,4.00
2018-08-22T04:51:09.096Z,7.37
2018-08-22T04:53:38.171Z,4.73
2018-08-22T04:56:07.131Z,4.77
2018-08-22T04:58:36.198Z,2.97
2018-08-22T05:01:05.142Z,3.77
2018-08-22T05:03:34.184Z,6.03
2018-08-22T05:06:03.192Z,5.63
2018-08-22T05:08:32.286Z,5.07
2018-08-22T05:11:01.300Z,6.20
2018-08-22T05:13:30.283Z,5.70
2018-08-22T05:15:59.270Z,5.70
2018-08-22T05:18:28.371Z,8.80
2018-08-22T05:20:57.315Z,4.67
2018-08-22T05:23:26.294Z,3.73
2018-08-22T05:25:55.358Z,4.00
2018-08-22T05:28:24.283Z,5.20
2018-08-22T05:30:53.112Z,6.20
2018-08-22T05:33:22.126Z,4.97
2018-08-22T05:35:51.071Z,8.67
2018-08-22T05:38:19.927Z,8.40
2018-08-22T05:40:49.007Z,5.57
2018-08-22T05:43:17.837Z,5.80
2018-08-22T05:45:46.697Z,5.10
2018-08-22T05:48:15.722Z,5.03
2018-08-22T05:50:44.538Z,6.33
2018-08-22T05:53:13.391Z,7.03
2018-08-22T05:55:42.454Z,5.60
2018-08-22T05:58:11.277Z,5.63
2018-08-22T06:00:40.168Z,4.33
2018-08-22T06:03:09.156Z,6.83
2018-08-22T06:05:37.934Z,3.47
2018-08-22T06:08:06.836Z,7.60
2018-08-22T06:10:35.907Z,4.07
2018-08-22T06:13:04.923Z,6.03
2018-08-22T06:15:34.141Z,5.67
2018-08-22T06:18:03.359Z,7.00
2018-08-22T06:20:32.250Z,6.13
2018-08-22T06:23:01.207Z,6.83
2018-08-22T06:25:30.233Z,4.57
2018-08-22T06:27:59.115Z,4.93
2018-08-22T06:30:27.971Z,5.57
2018-08-22T06:32:56.973Z,6.27
2018-08-22T06:35:25.881Z,5.40
2018-08-22T06:37:54.737Z,5.35
2018-08-22T06:40:24.011Z,4.37
2018-08-22T06:42:52.931Z,4.40
2018-08-22T06:45:21.824Z,4.03
2018-08-22T06:47:50.927Z,5.13
2018-08-22T06:50:19.785Z,4.83
2018-08-22T06:52:48.635Z,5.07
2018-08-22T06:55:17.635Z,5.03
2018-08-22T06:57:46.718Z,4.20
2018-08-22T07:00:15.586Z,1.93
2018-08-22T07:02:44.560Z,4.93
2018-08-22T07:05:13.418Z,5.30
2018-08-22T07:07:42.301Z,4.43
2018-08-22T07:10:11.387Z,4.77
2018-08-22T07:12:40.201Z,6.60
2018-08-22T07:15:09.161Z,6.33
2018-08-22T07:17:38.280Z,8.83
2018-08-22T07:20:07.739Z,3.53
2018-08-22T07:22:36.620Z,5.27
2018-08-22T07:25:05.595Z,5.57
2018-08-22T07:27:34.444Z,8.23
2018-08-22T07:30:03.615Z,6.63
2018-08-22T07:32:32.725Z,5.33
2018-08-22T07:35:01.576Z,6.47
2018-08-22T07:37:30.479Z,5.83
2018-08-22T07:39:59.586Z,6.37
2018-08-22T07:42:28.416Z,6.30
2018-08-22T07:44:57.379Z,6.37
2018-08-22T07:47:26.499Z,7.90
2018-08-22T07:49:55.694Z,6.40
2018-08-22T07:52:24.558Z,3.30
2018-08-22T07:54:53.791Z,4.10
2018-08-22T07:57:24.018Z,6.87
2018-08-22T07:59:53.801Z,6.53
2018-08-22T08:02:22.823Z,7.33
2018-08-22T08:04:51.703Z,5.73
2018-08-22T08:07:20.794Z,7.07
2018-08-22T08:09:49.853Z,4.63
2018-08-22T08:12:20.479Z,5.90
2018-08-22T08:14:53.506Z,6.20
2018-08-22T08:17:22.570Z,8.50
2018-08-22T08:19:51.594Z,5.00
2018-08-22T08:22:20.911Z,5.70
2018-08-22T08:24:49.757Z,6.83
2018-08-22T08:27:18.610Z,5.63
2018-08-22T08:29:47.566Z,6.93
2018-08-22T08:32:16.408Z,6.27
2018-08-22T08:34:45.259Z,5.43
2018-08-22T08:37:14.275Z,6.77
2018-08-22T08:39:43.175Z,5.23
2018-08-22T08:42:12.015Z,5.17
2018-08-22T08:44:41.123Z,5.43
2018-08-22T08:47:09.970Z,5.87
2018-08-22T08:49:38.927Z,7.30
2018-08-22T08:52:07.749Z,6.00
2018-08-22T08:54:36.570Z,5.67
2018-08-22T08:57:05.594Z,7.27
2018-08-22T08:59:34.520Z,5.83
2018-08-22T09:02:03.355Z,3.37
2018-08-22T09:04:32.275Z,6.67
2018-08-22T09:07:01.412Z,3.63
2018-08-22T09:09:30.229Z,4.30
2018-08-22T09:12:00.256Z,7.57
2018-08-22T09:14:29.596Z,5.67
2018-08-22T09:16:59.345Z,6.63
2018-08-22T09:19:28.616Z,8.17
2018-08-22T09:21:57.714Z,6.10
2018-08-22T09:24:26.716Z,8.30
2018-08-22T09:26:55.535Z,6.40
2018-08-22T09:29:25.171Z,6.40
2018-08-22T09:31:54.193Z,6.97
2018-08-22T09:34:23.020Z,6.93
2018-08-22T09:36:52.454Z,5.63
2018-08-22T09:39:21.286Z,10.27
2018-08-22T09:41:50.426Z,6.43
2018-08-22T09:44:19.459Z,6.13
2018-08-22T09:46:48.662Z,10.30
2018-08-22T09:49:17.495Z,6.17
2018-08-22T09:51:46.529Z,7.57
2018-08-22T09:54:15.400Z,7.47
2018-08-22T09:56:44.254Z,8.73
2018-08-22T09:59:13.406Z,12.00
2018-08-22T10:01:43.051Z,5.20
2018-08-22T10:04:11.851Z,7.57
2018-08-22T10:06:43.846Z,7.43
2018-08-22T10:09:21.838Z,7.00
2018-08-22T10:11:50.855Z,7.40
2018-08-22T10:14:19.698Z,6.83
2018-08-22T10:16:48.532Z,7.03
2018-08-22T10:19:17.821Z,6.33
2018-08-22T10:21:46.699Z,5.57
2018-08-22T10:24:15.726Z,7.80
2018-08-22T10:26:44.741Z,7.47
2018-08-22T10:29:13.552Z,7.20
2018-08-22T10:31:42.446Z,9.17
2018-08-22T10:34:11.519Z,7.13
2018-08-22T10:36:40.434Z,7.10
2018-08-22T10:39:09.815Z,8.25
2018-08-22T10:41:38.863Z,7.07
2018-08-22T10:44:07.958Z,7.53
2018-08-22T10:46:36.786Z,6.77
2018-08-22T10:49:06.089Z,5.40
2018-08-22T10:51:35.089Z,10.40
2018-08-22T10:54:04.333Z,9.33
2018-08-22T10:56:33.191Z,9.57
2018-08-22T10:59:02.026Z,7.43
2018-08-22T11:02:01.624Z,6.23
2018-08-22T11:04:30.478Z,7.23
2018-08-22T11:06:59.775Z,5.77
2018-08-22T11:09:28.775Z,6.77
2018-08-22T11:11:57.631Z,6.33
2018-08-22T11:14:26.471Z,6.73
2018-08-22T11:16:55.533Z,6.27
2018-08-22T11:19:24.341Z,5.83
2018-08-22T11:22:04.339Z,8.80
2018-08-22T11:24:44.384Z,5.90
2018-08-22T11:27:24.335Z,6.77
2018-08-22T11:30:04.049Z,8.33
2018-08-22T11:32:44.055Z,8.37
2018-08-22T11:35:11.635Z,8.40
2018-08-22T11:37:40.597Z,9.53
2018-08-22T11:40:09.585Z,7.57
2018-08-22T11:42:38.422Z,5.83
2018-08-22T11:45:07.491Z,9.10
2018-08-22T11:47:36.475Z,6.13
2018-08-22T11:50:05.368Z,7.40
2018-08-22T11:52:34.334Z,7.73
2018-08-22T11:55:03.351Z,7.73
2018-08-22T11:57:32.239Z,6.10
2018-08-22T12:00:01.019Z,7.13
2018-08-22T12:02:30.012Z,5.87
2018-08-22T12:04:58.850Z,9.87
2018-08-22T12:07:27.679Z,7.03
2018-08-22T12:09:56.833Z,6.70
2018-08-22T12:12:25.700Z,5.33
2018-08-22T12:14:54.517Z,4.10
2018-08-22T12:17:23.526Z,8.60
2018-08-22T12:19:52.459Z,7.80
2018-08-22T12:22:21.351Z,8.80
2018-08-22T12:24:50.411Z,6.03
2018-08-22T12:27:19.411Z,3.73
2018-08-22T12:29:48.271Z,8.10
2018-08-22T12:32:17.355Z,5.70
2018-08-22T12:34:46.230Z,7.53
2018-08-22T12:37:15.334Z,6.90
2018-08-22T12:39:44.366Z,6.03
2018-08-22T12:42:13.203Z,8.93
2018-08-22T12:44:42.078Z,6.43
2018-08-22T12:47:11.255Z,5.27
2018-08-22T12:49:40.111Z,6.00
2018-08-22T12:52:09.092Z,6.80
2018-08-22T12:54:38.097Z,5.53
2018-08-22T12:57:07.058Z,5.17
2018-08-22T12:59:35.997Z,8.80
2018-08-22T13:02:06.699Z,6.00
2018-08-22T13:04:35.556Z,7.43
2018-08-22T13:07:04.424Z,5.27
2018-08-22T13:09:33.395Z,7.23
2018-08-22T13:12:02.340Z,5.80
2018-08-22T13:14:31.187Z,4.90
2018-08-22T13:17:00.266Z,6.33
2018-08-22T13:19:29.086Z,6.10
2018-08-22T13:21:57.907Z,6.50
2018-08-22T13:24:26.795Z,8.17
2018-08-22T13:26:55.847Z,7.53
2018-08-22T13:29:24.648Z,5.97
2018-08-22T13:31:53.636Z,6.07
2018-08-22T13:34:22.507Z,7.17
2018-08-22T13:36:51.339Z,7.50
2018-08-22T13:39:20.311Z,6.10
2018-08-22T13:41:49.167Z,7.17
2018-08-22T13:44:17.993Z,5.03
2018-08-22T13:46:47.199Z,8.07
2018-08-22T13:49:16.219Z,4.67
2018-08-22T13:51:45.070Z,5.67
2018-08-22T13:54:14.264Z,6.33
2018-08-22T13:56:43.094Z,6.97
2018-08-22T13:59:11.925Z,4.83
2018-08-22T14:01:40.971Z,6.10
2018-08-22T14:04:10.035Z,5.60
2018-08-22T14:06:39.030Z,10.03
2018-08-22T14:09:09.514Z,7.53
2018-08-22T14:11:38.351Z,7.47
2018-08-22T14:14:07.267Z,7.27
2018-08-22T14:16:36.299Z,5.93
2018-08-22T14:19:05.191Z,7.57
2018-08-22T14:21:34.023Z,12.50
2018-08-22T14:24:02.983Z,9.17
2018-08-22T14:26:31.845Z,8.03
2018-08-22T14:29:00.779Z,7.50
2018-08-22T14:31:29.791Z,7.33
2018-08-22T14:33:58.667Z,5.87
2018-08-22T14:36:27.650Z,9.83
2018-08-22T14:38:56.603Z,6.30
2018-08-22T14:41:25.515Z,10.53
2018-08-22T14:43:54.344Z,5.30
2018-08-22T14:46:23.319Z,7.77
2018-08-22T14:48:52.143Z,7.00
2018-08-22T14:51:21.122Z,5.30
2018-08-22T14:53:50.359Z,5.80
2018-08-22T14:56:19.330Z,5.70
2018-08-22T14:58:48.167Z,5.30
2018-08-22T15:01:17.328Z,5.33
2018-08-22T15:03:46.183Z,10.07
2018-08-22T15:06:15.106Z,9.20
2018-08-22T15:08:44.078Z,9.33
2018-08-22T15:11:13.076Z,6.87
2018-08-22T15:13:42.058Z,6.83
2018-08-22T15:16:11.230Z,6.43
2018-08-22T15:18:40.122Z,8.13
2018-08-22T15:21:09.027Z,9.03
2018-08-22T15:23:37.995Z,7.23
2018-08-22T15:26:06.933Z,13.13
2018-08-22T15:28:35.827Z,9.00
2018-08-22T15:31:05.103Z,6.60
2018-08-22T15:33:33.966Z,11.00
2018-08-22T15:36:02.894Z,7.60
2018-08-22T15:38:31.983Z,9.10
2018-08-22T15:41:00.997Z,8.40
2018-08-22T15:43:29.875Z,11.87
2018-08-22T15:45:58.923Z,7.43
2018-08-22T15:48:27.903Z,4.53
2018-08-22T15:50:56.736Z,5.47
2018-08-22T15:53:25.971Z,6.10
2018-08-22T15:55:54.854Z,6.73
2018-08-22T15:58:23.871Z,10.73
2018-08-22T16:00:53.672Z,7.53
2018-08-22T16:03:23.463Z,7.03
2018-08-22T16:05:53.018Z,6.43
2018-08-22T16:08:23.146Z,8.77
2018-08-22T16:10:52.087Z,10.23
2018-08-22T16:13:28.516Z,5.30
2018-08-22T16:16:00.250Z,9.73
2018-08-22T16:18:29.398Z,9.53
2018-08-22T16:20:59.343Z,6.17
2018-08-22T16:23:34.146Z,8.73
2018-08-22T16:26:03.860Z,7.47
2018-08-22T16:28:44.197Z,7.37
2018-08-22T16:31:13.194Z,8.80
2018-08-22T16:33:42.071Z,5.50
2018-08-22T16:36:15.535Z,10.87
2018-08-22T16:38:44.553Z,6.17
2018-08-22T16:41:13.910Z,7.83
2018-08-22T16:43:44.101Z,7.97
2018-08-22T16:46:14.978Z,7.37
2018-08-22T16:48:47.404Z,10.93
2018-08-22T16:51:16.338Z,6.07
2018-08-22T16:53:55.446Z,5.87
2018-08-22T16:56:24.579Z,5.33
2018-08-22T16:58:58.144Z,9.87
2018-08-22T17:01:27.063Z,7.13
2018-08-22T17:03:56.020Z,7.20
2018-08-22T17:06:29.150Z,8.00
2018-08-22T17:08:58.654Z,9.13
2018-08-22T17:11:27.523Z,7.27
2018-08-22T17:13:56.570Z,11.23
2018-08-22T17:16:25.942Z,7.67
2018-08-22T17:18:55.058Z,8.60
2018-08-22T17:21:24.080Z,7.80
2018-08-22T17:23:53.167Z,9.23
2018-08-22T17:26:23.006Z,9.00
2018-08-22T17:28:55.451Z,5.60
2018-08-22T17:31:25.384Z,7.47
2018-08-22T17:33:57.687Z,8.80
2018-08-22T17:36:26.643Z,9.50
2018-08-22T17:38:56.792Z,7.57
2018-08-22T17:41:27.124Z,9.80
2018-08-22T17:44:13.295Z,4.20
2018-08-22T17:46:44.326Z,6.47
2018-08-22T17:49:13.238Z,10.67
2018-08-22T17:52:06.182Z,12.63
2018-08-22T17:54:35.109Z,5.63
2018-08-22T17:57:12.347Z,6.50
2018-08-22T17:59:42.074Z,7.70
2018-08-22T18:02:11.019Z,11.20
2018-08-22T18:04:52.840Z,11.67
2018-08-22T18:07:21.775Z,9.67
2018-08-22T18:09:51.063Z,7.30
2018-08-22T18:12:22.304Z,8.10
2018-08-22T18:14:51.288Z,9.40
2018-08-22T18:17:20.485Z,12.03
2018-08-22T18:19:49.789Z,11.17
2018-08-22T18:22:18.663Z,8.30
2018-08-22T18:24:53.518Z,12.03
2018-08-22T18:27:23.451Z,13.60
2018-08-22T18:29:52.751Z,10.90
2018-08-22T18:32:21.648Z,11.77
2018-08-22T18:34:59.733Z,13.10
2018-08-22T18:37:29.621Z,11.83
2018-08-22T18:40:09.830Z,11.30
2018-08-22T18:42:38.869Z,10.90
2018-08-22T18:45:08.226Z,7.27
2018-08-22T18:47:38.152Z,15.60
2018-08-22T18:50:07.154Z,11.93
2018-08-22T18:52:36.048Z,9.53
2018-08-22T18:55:05.075Z,9.97
2018-08-22T18:57:33.907Z,11.03
2018-08-22T19:00:05.641Z,11.27
2018-08-22T19:02:34.646Z,14.63
2018-08-22T19:05:36.137Z,14.57
2018-08-22T19:08:11.005Z,12.73
2018-08-22T19:10:41.082Z,11.27
2018-08-22T19:13:18.043Z,13.17
2018-08-22T19:15:48.022Z,14.20
2018-08-22T19:18:16.899Z,12.27
2018-08-22T19:20:45.892Z,13.20
2018-08-22T19:23:14.976Z,18.60
2018-08-22T19:25:46.562Z,10.13
2018-08-22T19:28:15.617Z,12.77
2018-08-22T19:30:44.795Z,10.97
2018-08-22T19:33:15.943Z,13.43
2018-08-22T19:35:45.635Z,18.37
2018-08-22T19:38:19.367Z,13.17
2018-08-22T19:40:48.325Z,13.60
2018-08-22T19:43:17.339Z,12.60
2018-08-22T19:45:46.397Z,17.87
2018-08-22T19:48:15.508Z,16.30
2018-08-22T19:50:44.534Z,10.70
2018-08-22T19:53:13.483Z,13.07
2018-08-22T19:55:42.556Z,13.40
2018-08-22T19:58:11.700Z,14.73
2018-08-22T20:00:40.648Z,12.77
2018-08-22T20:03:09.715Z,13.17
2018-08-22T20:05:51.217Z,14.27
2018-08-22T20:08:24.467Z,17.83
2018-08-22T20:10:53.580Z,14.87
2018-08-22T20:13:22.758Z,9.87
2018-08-22T20:15:51.754Z,13.00
2018-08-22T20:18:20.747Z,18.67
2018-08-22T20:20:49.926Z,13.07
2018-08-22T20:23:18.993Z,11.97
2018-08-22T20:25:48.019Z,16.40
2018-08-22T20:28:17.127Z,13.17
2018-08-22T20:30:46.247Z,16.33
2018-08-22T20:33:15.498Z,15.33
2018-08-22T20:35:44.614Z,13.63
2018-08-22T20:38:13.889Z,13.37
2018-08-22T20:40:43.092Z,15.87
2018-08-22T20:43:17.840Z,16.73
2018-08-22T20:45:46.883Z,14.53
2018-08-22T20:48:18.355Z,12.17
2018-08-22T20:50:47.576Z,13.53
2018-08-22T20:53:18.354Z,9.53
2018-08-22T20:55:47.483Z,9.20
2018-08-22T20:58:30.742Z,9.63
2018-08-22T21:01:00.356Z,10.93
2018-08-22T21:03:29.447Z,11.47
2018-08-22T21:05:58.529Z,10.83
2018-08-22T21:08:27.546Z,9.60
2018-08-22T21:10:56.544Z,9.83
2018-08-22T21:13:29.182Z,10.67
2018-08-22T21:15:58.563Z,9.43
2018-08-22T21:18:27.927Z,12.77
2018-08-22T21:20:57.027Z,9.00
2018-08-22T21:23:26.007Z,9.80
2018-08-22T21:25:54.899Z,9.43
2018-08-22T21:28:25.667Z,13.80
2018-08-22T21:30:58.930Z,11.00
2018-08-22T21:33:28.845Z,12.97
2018-08-22T21:35:57.762Z,9.70
2018-08-22T21:38:26.806Z,10.37
2018-08-22T21:40:55.647Z,10.97
2018-08-22T21:43:24.608Z,8.27
2018-08-22T21:45:53.679Z,8.90
2018-08-22T21:48:24.458Z,10.90
2018-08-22T21:50:53.311Z,10.33
2018-08-22T21:53:22.279Z,9.87
2018-08-22T21:55:52.914Z,7.20
2018-08-22T21:58:22.744Z,6.97
2018-08-22T22:00:51.797Z,5.60
2018-08-22T22:03:25.666Z,6.20
2018-08-22T22:06:00.742Z,6.93
2018-08-22T22:08:29.639Z,5.80
2018-08-22T22:11:05.475Z,8.90
2018-08-22T22:13:34.311Z,7.00
2018-08-22T22:16:04.698Z,7.07
2018-08-22T22:18:34.506Z,10.47
2018-08-22T22:21:12.023Z,7.47
2018-08-22T22:23:45.787Z,9.60
2018-08-22T22:26:15.646Z,7.27
2018-08-22T22:28:44.500Z,5.23
2018-08-22T22:31:14.487Z,9.43
2018-08-22T22:33:45.887Z,4.90
2018-08-22T22:36:15.443Z,7.27
2018-08-22T22:38:44.334Z,5.23
2018-08-22T22:41:13.252Z,6.37
2018-08-22T22:43:42.439Z,5.23
2018-08-22T22:46:11.340Z,5.93
2018-08-22T22:48:41.622Z,6.53
2018-08-22T22:51:10.890Z,7.93
2018-08-22T22:53:39.864Z,4.33
2018-08-22T22:56:08.835Z,5.80
2018-08-22T22:58:37.961Z,6.57
2018-08-22T23:01:07.498Z,5.80
2018-08-22T23:03:36.451Z,8.10
2018-08-22T23:06:05.450Z,8.40
2018-08-22T23:08:34.338Z,5.00
2018-08-22T23:11:03.205Z,8.50
2018-08-22T23:13:32.107Z,9.60
2018-08-22T23:16:00.946Z,8.13
2018-08-22T23:18:29.810Z,6.37
2018-08-22T23:20:59.197Z,7.27
2018-08-22T23:23:33.191Z,11.47
2018-08-22T23:26:08.263Z,8.13
2018-08-22T23:28:37.292Z,10.43
2018-08-22T23:31:06.111Z,7.73
2018-08-22T23:33:34.955Z,5.37
2018-08-22T23:36:04.232Z,9.70
2018-08-22T23:38:34.486Z,9.43
2018-08-22T23:41:03.739Z,10.57
2018-08-22T23:43:44.651Z,9.37
2018-08-22T23:46:14.249Z,9.87
2018-08-22T23:48:43.342Z,8.57
2018-08-22T23:51:14.044Z,7.10
2018-08-22T23:53:45.858Z,9.63
2018-08-22T23:56:18.324Z,11.90
2018-08-22T23:58:47.989Z,8.47
